createdAt,value
2022-09-20T00:01:13.100Z,99.90
2022-09-20T00:03:45.258Z,99.90
2022-09-20T00:06:18.425Z,99.90
2022-09-20T00:08:46.632Z,99.90
2022-09-20T00:11:19.504Z,99.90
2022-09-20T00:13:48.485Z,99.90
2022-09-20T00:16:21.931Z,99.90
2022-09-20T00:18:53.209Z,99.90
2022-09-20T00:21:23.401Z,99.90
2022-09-20T00:23:51.260Z,99.90
2022-09-20T00:26:18.432Z,99.90
2022-09-20T00:28:47.047Z,99.90
2022-09-20T00:31:14.893Z,99.90
2022-09-20T00:34:00.551Z,99.90
2022-09-20T00:36:27.574Z,99.90
2022-09-20T00:38:59.215Z,99.90
2022-09-20T00:41:26.558Z,99.90
2022-09-20T00:43:54.091Z,99.90
2022-09-20T00:46:39.808Z,99.90
2022-09-20T00:49:14.332Z,99.90
2022-09-20T00:51:45.924Z,99.90
2022-09-20T00:54:20.345Z,99.90
2022-09-20T00:56:48.526Z,99.90
2022-09-20T00:59:22.767Z,99.90
2022-09-20T01:01:56.491Z,99.90
2022-09-20T01:04:27.115Z,99.90
2022-09-20T01:06:56.645Z,99.90
2022-09-20T01:09:23.389Z,99.90
2022-09-20T01:11:52.094Z,99.90
2022-09-20T01:14:20.157Z,99.90
2022-09-20T01:16:47.188Z,99.90
2022-09-20T01:19:26.898Z,99.90
2022-09-20T01:21:54.763Z,99.90
2022-09-20T01:24:29.903Z,99.90
2022-09-20T01:27:20.618Z,99.90
2022-09-20T01:29:56.318Z,99.90
2022-09-20T01:32:29.294Z,99.90
2022-09-20T01:35:00.095Z,99.90
2022-09-20T01:38:03.756Z,99.90
2022-09-20T01:40:42.791Z,99.90
2022-09-20T01:43:16.702Z,99.90
2022-09-20T01:45:49.461Z,99.90
2022-09-20T01:48:42.493Z,99.90
2022-09-20T01:51:30.440Z,99.90
2022-09-20T01:54:26.533Z,99.90
2022-09-20T01:56:59.466Z,99.90
2022-09-20T02:00:01.972Z,99.90
2022-09-20T02:02:59.915Z,99.90
2022-09-20T02:06:00.762Z,99.90
2022-09-20T02:08:57.664Z,99.90
2022-09-20T02:11:41.180Z,99.90
2022-09-20T02:14:37.192Z,99.90
2022-09-20T02:17:14.649Z,99.90
2022-09-20T02:19:47.288Z,99.90
2022-09-20T02:22:32.833Z,99.90
2022-09-20T02:25:15.961Z,99.90
2022-09-20T02:27:53.741Z,99.90
2022-09-20T02:30:23.505Z,99.90
2022-09-20T02:33:17.728Z,99.90
2022-09-20T02:35:47.428Z,99.90
2022-09-20T02:38:49.316Z,99.90
2022-09-20T02:41:19.265Z,99.90
2022-09-20T02:44:02.141Z,99.90
2022-09-20T02:46:45.215Z,99.90
2022-09-20T02:49:22.183Z,99.90
2022-09-20T02:52:03.993Z,99.90
2022-09-20T02:54:58.416Z,99.90
2022-09-20T02:58:02.166Z,99.90
2022-09-20T03:00:45.798Z,99.90
2022-09-20T03:03:59.738Z,99.90
2022-09-20T03:06:41.362Z,99.90
2022-09-20T03:09:27.376Z,99.90
2022-09-20T03:12:09.193Z,99.90
2022-09-20T03:14:37.453Z,99.90
2022-09-20T03:17:20.617Z,99.90
2022-09-20T03:20:04.118Z,99.90
2022-09-20T03:22:36.384Z,99.90
2022-09-20T03:25:21.699Z,99.90
2022-09-20T03:27:54.222Z,99.90
2022-09-20T03:30:56.282Z,99.90
2022-09-20T03:33:38.815Z,99.90
2022-09-20T03:36:16.553Z,99.90
2022-09-20T03:39:01.210Z,99.90
2022-09-20T03:41:46.420Z,99.90
2022-09-20T03:44:34.390Z,99.90
2022-09-20T03:47:36.726Z,99.90
2022-09-20T03:50:40.950Z,99.90
2022-09-20T03:53:28.941Z,99.90
2022-09-20T03:56:19.892Z,99.90
2022-09-20T03:58:58.250Z,99.90
2022-09-20T04:01:42.973Z,99.90
2022-09-20T04:04:23.287Z,99.90
2022-09-20T04:07:04.788Z,99.90
2022-09-20T04:09:55.574Z,99.90
2022-09-20T04:12:22.261Z,99.90
2022-09-20T04:15:27.343Z,99.90
2022-09-20T04:18:02.993Z,99.90
2022-09-20T04:21:00.612Z,99.90
2022-09-20T04:23:47.237Z,99.90
2022-09-20T04:26:19.293Z,99.90
2022-09-20T04:29:22.895Z,99.90
2022-09-20T04:32:10.347Z,99.90
2022-09-20T04:35:05.019Z,99.90
2022-09-20T04:37:35.355Z,99.90
2022-09-20T04:40:09.118Z,99.90
2022-09-20T04:43:13.470Z,99.90
2022-09-20T04:45:43.244Z,99.90
2022-09-20T04:48:31.463Z,99.90
2022-09-20T04:51:10.075Z,99.90
2022-09-20T04:53:52.365Z,99.90
2022-09-20T04:56:50.128Z,99.90
2022-09-20T05:00:05.346Z,99.90
2022-09-20T05:02:53.516Z,99.90
2022-09-20T05:05:32.138Z,99.90
2022-09-20T05:08:17.398Z,99.90
2022-09-20T05:11:09.707Z,99.90
2022-09-20T05:13:52.914Z,99.90
2022-09-20T05:16:48.484Z,99.90
2022-09-20T05:19:26.469Z,99.90
2022-09-20T05:22:32.465Z,99.90
2022-09-20T05:25:07.261Z,99.90
2022-09-20T05:27:45.038Z,99.90
2022-09-20T05:30:31.265Z,99.90
2022-09-20T05:33:14.033Z,99.90
2022-09-20T05:35:59.424Z,99.90
2022-09-20T05:38:50.090Z,99.90
2022-09-20T05:41:23.918Z,99.90
2022-09-20T05:44:11.623Z,99.90
2022-09-20T05:47:18.401Z,99.90
2022-09-20T05:50:24.484Z,99.90
2022-09-20T05:53:23.525Z,99.90
2022-09-20T05:56:20.757Z,99.90
2022-09-20T05:59:30.213Z,99.90
2022-09-20T06:02:21.584Z,99.90
2022-09-20T06:05:01.652Z,99.90
2022-09-20T06:07:31.353Z,99.90
2022-09-20T06:10:07.570Z,99.90
2022-09-20T06:12:43.730Z,99.90
2022-09-20T06:15:31.551Z,99.90
2022-09-20T06:18:04.088Z,99.90
2022-09-20T06:20:44.693Z,99.90
2022-09-20T06:23:12.058Z,99.90
2022-09-20T06:25:44.908Z,99.90
2022-09-20T06:28:21.268Z,99.90
2022-09-20T06:30:53.472Z,99.90
2022-09-20T06:33:28.896Z,99.90
2022-09-20T06:36:29.879Z,99.90
2022-09-20T06:39:17.704Z,99.90
2022-09-20T06:41:44.942Z,99.90
2022-09-20T06:44:11.606Z,99.90
2022-09-20T06:46:39.272Z,99.90
2022-09-20T06:49:09.695Z,99.90
2022-09-20T06:51:38.354Z,99.90
2022-09-20T06:54:08.957Z,99.90
2022-09-20T06:56:36.758Z,99.90
2022-09-20T06:59:08.596Z,99.90
2022-09-20T07:01:35.549Z,99.90
2022-09-20T07:04:03.196Z,99.90
2022-09-20T07:06:29.916Z,99.90
2022-09-20T07:08:56.652Z,99.90
2022-09-20T07:11:23.489Z,99.90
2022-09-20T07:13:55.084Z,99.90
2022-09-20T07:16:22.583Z,99.90
2022-09-20T07:18:49.979Z,99.90
2022-09-20T07:21:18.710Z,99.90
2022-09-20T07:23:45.996Z,99.90
2022-09-20T07:26:26.446Z,99.90
2022-09-20T07:28:53.655Z,99.90
2022-09-20T07:31:23.533Z,99.90
2022-09-20T07:33:50.522Z,99.90
2022-09-20T07:36:18.154Z,99.90
2022-09-20T07:38:50.239Z,99.90
2022-09-20T07:41:19.160Z,99.90
2022-09-20T07:43:46.804Z,99.90
2022-09-20T07:46:13.669Z,99.90
2022-09-20T07:48:41.337Z,99.90
2022-09-20T07:51:11.516Z,99.90
2022-09-20T07:53:39.173Z,99.90
2022-09-20T07:56:10.090Z,99.90
2022-09-20T07:58:37.520Z,99.90
2022-09-20T08:01:08.169Z,99.90
2022-09-20T08:03:35.646Z,99.90
2022-09-20T08:06:09.835Z,99.90
2022-09-20T08:08:38.854Z,99.90
2022-09-20T08:11:08.475Z,99.90
2022-09-20T08:16:32.216Z,99.90
2022-09-20T08:19:01.646Z,99.90
2022-09-20T08:21:33.229Z,99.90
2022-09-20T08:24:01.481Z,99.90
2022-09-20T08:26:31.048Z,99.90
2022-09-20T08:28:59.292Z,99.90
2022-09-20T08:31:28.368Z,99.90
2022-09-20T08:33:55.554Z,99.90
2022-09-20T08:36:24.610Z,99.90
2022-09-20T08:41:55.613Z,99.90
2022-09-20T08:44:36.188Z,99.90
2022-09-20T08:47:23.607Z,99.90
2022-09-20T08:49:56.929Z,97.90
2022-09-20T08:52:37.101Z,98.10
2022-09-20T08:55:27.983Z,97.90
2022-09-20T08:57:59.257Z,99.40
2022-09-20T09:00:34.376Z,99.40
2022-09-20T09:03:07.409Z,98.90
2022-09-20T09:05:58.148Z,97.20
2022-09-20T09:08:29.434Z,99.00
2022-09-20T09:10:59.986Z,98.80
2022-09-20T09:13:53.210Z,99.90
2022-09-20T09:16:25.722Z,99.90
2022-09-20T09:18:56.525Z,99.90
2022-09-20T09:21:26.028Z,99.90
2022-09-20T09:24:09.818Z,99.90
2022-09-20T09:26:41.948Z,96.60
2022-09-20T09:29:19.248Z,96.10
2022-09-20T09:31:48.456Z,95.20
2022-09-20T09:34:26.120Z,96.10
2022-09-20T09:36:54.391Z,95.70
2022-09-20T09:39:38.038Z,97.50
2022-09-20T09:42:31.679Z,97.50
2022-09-20T09:45:13.066Z,95.90
2022-09-20T09:47:39.711Z,95.00
2022-09-20T09:50:09.828Z,93.80
2022-09-20T09:52:36.887Z,94.50
2022-09-20T09:55:06.005Z,94.60
2022-09-20T09:58:01.151Z,97.30
2022-09-20T10:00:31.529Z,96.20
2022-09-20T10:03:22.428Z,87.90
2022-09-20T10:06:10.239Z,91.50
2022-09-20T10:09:09.961Z,95.60
2022-09-20T10:11:45.221Z,83.40
2022-09-20T10:14:31.576Z,85.30
2022-09-20T10:17:36.521Z,84.50
2022-09-20T10:20:37.584Z,86.90
2022-09-20T10:24:01.507Z,86.00
2022-09-20T10:26:43.823Z,85.00
2022-09-20T10:29:15.591Z,86.10
2022-09-20T10:31:52.376Z,85.70
2022-09-20T10:34:47.111Z,85.30
2022-09-20T10:37:40.392Z,84.40
2022-09-20T10:40:16.356Z,84.20
2022-09-20T10:43:08.333Z,84.00
2022-09-20T10:46:14.382Z,80.50
2022-09-20T10:48:52.967Z,82.20
2022-09-20T10:51:25.739Z,78.50
2022-09-20T10:54:11.004Z,74.70
2022-09-20T10:56:44.972Z,66.50
2022-09-20T10:59:23.455Z,59.80
2022-09-20T11:02:05.071Z,56.70
2022-09-20T11:04:53.498Z,56.10
2022-09-20T11:07:38.652Z,55.50
2022-09-20T11:10:16.567Z,56.40
2022-09-20T11:13:02.211Z,57.00
2022-09-20T11:15:46.982Z,57.10
2022-09-20T11:18:23.141Z,58.20
2022-09-20T11:21:03.302Z,59.50
2022-09-20T11:23:51.017Z,61.90
2022-09-20T11:26:39.910Z,64.10
2022-09-20T11:29:22.485Z,67.70
2022-09-20T11:31:53.167Z,72.10
2022-09-20T11:34:31.577Z,74.40
2022-09-20T11:37:01.613Z,84.30
2022-09-20T11:39:38.409Z,92.20
2022-09-20T11:42:06.536Z,95.10
2022-09-20T11:44:41.880Z,98.50
2022-09-20T11:47:52.762Z,99.90
2022-09-20T11:50:50.783Z,99.90
2022-09-20T11:53:20.639Z,99.90
2022-09-20T11:56:32.199Z,99.90
2022-09-20T11:59:01.457Z,99.90
2022-09-20T12:01:33.354Z,99.90
2022-09-20T12:04:31.338Z,99.10
2022-09-20T12:07:08.841Z,99.30
2022-09-20T12:09:42.352Z,98.80
2022-09-20T12:12:15.124Z,95.40
2022-09-20T12:14:42.498Z,94.00
2022-09-20T12:17:47.757Z,96.10
2022-09-20T12:20:35.258Z,91.00
2022-09-20T12:23:43.226Z,90.30
2022-09-20T12:26:20.311Z,86.70
2022-09-20T12:28:52.772Z,88.30
2022-09-20T12:31:22.523Z,90.10
2022-09-20T12:33:55.426Z,86.40
2022-09-20T12:36:22.178Z,86.10
2022-09-20T12:39:00.281Z,85.00
2022-09-20T12:41:29.046Z,80.10
2022-09-20T12:44:06.093Z,70.00
2022-09-20T12:46:50.740Z,66.20
2022-09-20T12:49:45.002Z,57.00
2022-09-20T12:53:02.503Z,54.90
2022-09-20T12:55:50.318Z,51.40
2022-09-20T12:58:52.129Z,50.90
2022-09-20T13:01:18.826Z,51.80
2022-09-20T13:03:48.179Z,50.10
2022-09-20T13:06:16.306Z,51.10
2022-09-20T13:08:51.651Z,52.50
2022-09-20T13:11:29.206Z,51.10
2022-09-20T13:14:23.610Z,50.10
2022-09-20T13:16:55.212Z,49.60
2022-09-20T13:19:30.099Z,51.60
2022-09-20T13:22:02.482Z,53.10
2022-09-20T13:24:38.962Z,53.30
2022-09-20T13:27:09.485Z,55.10
2022-09-20T13:29:42.228Z,57.80
2022-09-20T13:32:18.898Z,55.10
2022-09-20T13:34:46.978Z,52.00
2022-09-20T13:37:23.500Z,53.00
2022-09-20T13:39:54.915Z,54.60
2022-09-20T13:42:22.130Z,53.80
2022-09-20T13:44:49.306Z,52.30
2022-09-20T13:47:24.246Z,53.10
2022-09-20T13:49:51.061Z,53.70
2022-09-20T13:52:24.798Z,51.60
2022-09-20T13:54:51.543Z,50.30
2022-09-20T13:57:27.454Z,50.50
2022-09-20T13:59:55.673Z,51.50
2022-09-20T14:02:32.349Z,54.90
2022-09-20T14:05:05.317Z,54.50
2022-09-20T14:07:33.639Z,54.80
2022-09-20T14:10:01.219Z,54.40
2022-09-20T14:12:28.383Z,54.40
2022-09-20T14:14:57.196Z,55.30
2022-09-20T14:17:24.644Z,56.00
2022-09-20T14:19:55.307Z,57.10
2022-09-20T14:22:29.103Z,57.30
2022-09-20T14:25:19.282Z,57.50
2022-09-20T14:27:46.060Z,57.70
2022-09-20T14:30:36.256Z,57.10
2022-09-20T14:33:06.856Z,56.90
2022-09-20T14:35:34.227Z,58.70
2022-09-20T14:38:08.356Z,59.60
2022-09-20T14:40:44.337Z,60.30
2022-09-20T14:43:31.496Z,60.00
2022-09-20T14:46:01.888Z,61.20
2022-09-20T14:48:37.647Z,63.10
2022-09-20T14:51:18.769Z,61.60
2022-09-20T14:53:47.488Z,62.80
2022-09-20T14:56:26.959Z,63.50
2022-09-20T14:59:06.858Z,64.10
2022-09-20T15:01:35.900Z,63.10
2022-09-20T15:04:17.107Z,64.50
2022-09-20T15:06:43.896Z,64.10
2022-09-20T15:09:13.232Z,63.90
2022-09-20T15:11:40.903Z,67.00
2022-09-20T15:14:08.332Z,62.70
2022-09-20T15:16:35.450Z,59.50
2022-09-20T15:19:02.162Z,60.00
2022-09-20T15:21:28.872Z,59.40
2022-09-20T15:23:55.595Z,59.60
2022-09-20T15:26:22.436Z,60.70
2022-09-20T15:28:49.315Z,62.90
2022-09-20T15:31:17.197Z,59.00
2022-09-20T15:33:43.991Z,60.90
2022-09-20T15:36:10.999Z,59.20
2022-09-20T15:38:37.665Z,57.90
2022-09-20T15:41:04.715Z,57.00
2022-09-20T15:43:31.601Z,55.80
2022-09-20T15:46:02.012Z,55.50
2022-09-20T15:48:30.719Z,53.00
2022-09-20T15:51:02.163Z,52.40
2022-09-20T15:53:31.712Z,51.70
2022-09-20T15:56:02.576Z,52.50
2022-09-20T15:58:36.137Z,52.20
2022-09-20T16:01:07.245Z,52.90
2022-09-20T16:03:36.082Z,54.00
2022-09-20T16:06:08.600Z,54.70
2022-09-20T16:08:37.630Z,54.70
2022-09-20T16:11:05.786Z,54.10
2022-09-20T16:13:32.593Z,54.30
2022-09-20T16:16:01.209Z,54.80
2022-09-20T16:18:47.861Z,54.10
2022-09-20T16:21:17.123Z,54.90
2022-09-20T16:23:50.800Z,53.80
2022-09-20T16:26:18.572Z,53.00
2022-09-20T16:28:47.767Z,52.90
2022-09-20T16:31:32.673Z,52.40
2022-09-20T16:34:00.365Z,51.20
2022-09-20T16:36:27.699Z,51.40
2022-09-20T16:38:58.438Z,52.00
2022-09-20T16:41:26.246Z,51.30
2022-09-20T16:43:53.723Z,51.80
2022-09-20T16:46:27.385Z,52.10
2022-09-20T16:48:55.566Z,52.20
2022-09-20T16:51:26.422Z,51.90
2022-09-20T16:53:54.870Z,52.20
2022-09-20T16:56:36.301Z,52.90
2022-09-20T16:59:04.417Z,53.00
2022-09-20T17:01:31.977Z,53.60
2022-09-20T17:03:59.131Z,53.80
2022-09-20T17:06:28.555Z,53.50
2022-09-20T17:08:59.039Z,54.10
2022-09-20T17:11:28.357Z,54.00
2022-09-20T17:13:56.329Z,52.90
2022-09-20T17:16:25.619Z,52.40
2022-09-20T17:18:54.367Z,52.20
2022-09-20T17:21:22.387Z,52.20
2022-09-20T17:23:54.954Z,52.90
2022-09-20T17:26:28.629Z,54.10
2022-09-20T17:28:56.318Z,55.50
2022-09-20T17:31:29.284Z,56.00
2022-09-20T17:34:00.049Z,56.60
2022-09-20T17:36:32.740Z,58.20
2022-09-20T17:39:04.115Z,60.90
2022-09-20T17:41:32.766Z,63.80
2022-09-20T17:44:02.644Z,66.00
2022-09-20T17:46:35.486Z,67.70
2022-09-20T17:49:05.517Z,68.00
2022-09-20T17:51:43.794Z,70.20
2022-09-20T17:54:14.228Z,70.80
2022-09-20T17:56:43.514Z,72.20
2022-09-20T17:59:11.573Z,72.50
2022-09-20T18:01:39.908Z,77.60
2022-09-20T18:04:07.704Z,78.00
2022-09-20T18:06:37.462Z,79.50
2022-09-20T18:09:09.117Z,81.00
2022-09-20T18:11:42.657Z,82.60
2022-09-20T18:14:13.384Z,84.10
2022-09-20T18:16:40.749Z,89.80
2022-09-20T18:19:09.011Z,88.70
2022-09-20T18:21:37.325Z,90.10
2022-09-20T18:24:09.135Z,91.90
2022-09-20T18:26:36.914Z,90.70
2022-09-20T18:29:09.419Z,91.00
2022-09-20T18:31:43.151Z,92.50
2022-09-20T18:34:17.920Z,93.80
2022-09-20T18:36:55.064Z,93.60
2022-09-20T18:39:23.230Z,94.60
2022-09-20T18:41:50.640Z,93.80
2022-09-20T18:44:18.627Z,94.00
2022-09-20T18:46:46.636Z,95.10
2022-09-20T18:49:15.064Z,95.10
2022-09-20T18:51:43.303Z,95.70
2022-09-20T18:54:11.047Z,96.30
2022-09-20T18:56:39.989Z,95.90
2022-09-20T18:59:18.738Z,96.20
2022-09-20T19:01:54.011Z,95.70
2022-09-20T19:04:41.713Z,95.90
2022-09-20T19:07:27.149Z,96.30
2022-09-20T19:10:06.100Z,96.50
2022-09-20T19:13:02.144Z,95.80
2022-09-20T19:15:53.273Z,97.10
2022-09-20T19:18:44.354Z,96.50
2022-09-20T19:21:13.878Z,98.80
2022-09-20T19:24:05.306Z,97.90
2022-09-20T19:26:38.057Z,99.10
2022-09-20T19:29:20.686Z,99.50
2022-09-20T19:31:49.970Z,99.90
2022-09-20T19:34:22.670Z,99.90
2022-09-20T19:37:21.482Z,99.90
2022-09-20T19:40:04.480Z,99.30
2022-09-20T19:43:03.158Z,99.90
2022-09-20T19:45:55.693Z,99.60
2022-09-20T19:48:39.005Z,99.90
2022-09-20T19:51:13.865Z,99.90
2022-09-20T19:53:41.027Z,99.90
2022-09-20T19:56:29.592Z,99.90
2022-09-20T19:58:56.881Z,99.90
2022-09-20T20:01:25.429Z,99.90
2022-09-20T20:03:53.736Z,99.90
2022-09-20T20:06:27.070Z,99.90
2022-09-20T20:09:18.594Z,99.90
2022-09-20T20:12:14.853Z,99.90
2022-09-20T20:15:07.814Z,99.90
2022-09-20T20:17:43.327Z,99.90
2022-09-20T20:20:16.680Z,99.90
2022-09-20T20:22:56.826Z,99.90
2022-09-20T20:26:28.047Z,99.90
2022-09-20T20:28:54.830Z,99.90
2022-09-20T20:31:22.821Z,99.90
2022-09-20T20:33:50.011Z,99.90
2022-09-20T20:36:17.267Z,99.90
2022-09-20T20:38:49.686Z,99.90
2022-09-20T20:41:21.246Z,99.90
2022-09-20T20:43:48.493Z,99.90
2022-09-20T20:46:20.322Z,99.90
2022-09-20T20:48:50.368Z,99.90
2022-09-20T20:51:19.847Z,99.90
2022-09-20T20:53:49.566Z,99.90
2022-09-20T20:56:21.988Z,99.90
2022-09-20T20:58:49.674Z,99.90
2022-09-20T21:01:28.590Z,99.90
2022-09-20T21:03:56.118Z,99.90
2022-09-20T21:06:27.586Z,99.90
2022-09-20T21:08:54.465Z,99.90
2022-09-20T21:11:27.414Z,99.90
2022-09-20T21:13:57.092Z,99.90
2022-09-20T21:16:26.548Z,99.90
2022-09-20T21:18:53.274Z,99.90
2022-09-20T21:21:25.934Z,99.90
2022-09-20T21:23:55.085Z,99.90
2022-09-20T21:26:23.374Z,99.90
2022-09-20T21:28:54.995Z,99.90
2022-09-20T21:31:23.202Z,99.90
2022-09-20T21:33:50.220Z,99.90
2022-09-20T21:36:21.006Z,99.90
2022-09-20T21:38:47.762Z,99.90
2022-09-20T21:41:22.675Z,99.90
2022-09-20T21:43:53.216Z,99.90
2022-09-20T21:46:22.057Z,99.90
2022-09-20T21:48:50.513Z,99.90
2022-09-20T21:51:20.346Z,99.90
2022-09-20T21:53:48.343Z,99.90
2022-09-20T21:56:17.494Z,99.90
2022-09-20T21:58:45.942Z,99.90
2022-09-20T22:01:18.417Z,99.90
2022-09-20T22:03:51.772Z,99.90
2022-09-20T22:06:20.825Z,99.90
2022-09-20T22:08:52.987Z,99.90
2022-09-20T22:11:21.883Z,99.90
2022-09-20T22:13:50.675Z,99.90
2022-09-20T22:16:34.805Z,99.90
2022-09-20T22:19:01.670Z,99.90
2022-09-20T22:21:37.100Z,99.90
2022-09-20T22:24:07.101Z,99.90
2022-09-20T22:26:40.319Z,99.90
2022-09-20T22:29:07.749Z,99.90
2022-09-20T22:31:37.067Z,99.90
2022-09-20T22:34:06.436Z,99.90
2022-09-20T22:36:35.444Z,99.90
2022-09-20T22:39:03.670Z,99.90
2022-09-20T22:41:30.493Z,99.90
2022-09-20T22:43:57.247Z,99.90
2022-09-20T22:46:26.713Z,99.90
2022-09-20T22:48:53.528Z,99.90
2022-09-20T22:51:25.674Z,99.90
2022-09-20T22:53:53.125Z,99.90
2022-09-20T22:56:24.971Z,99.90
2022-09-20T22:58:54.248Z,99.90
2022-09-20T23:01:23.666Z,99.90
2022-09-20T23:03:58.890Z,99.90
2022-09-20T23:06:31.678Z,99.90
2022-09-20T23:09:00.828Z,99.90
2022-09-20T23:11:28.749Z,99.90
2022-09-20T23:14:00.746Z,99.90
2022-09-20T23:16:30.431Z,99.90
2022-09-20T23:18:58.981Z,99.90
2022-09-20T23:21:26.382Z,99.90
2022-09-20T23:24:00.990Z,99.90
2022-09-20T23:26:32.279Z,99.90
2022-09-20T23:29:00.068Z,99.90
2022-09-20T23:31:28.079Z,99.90
2022-09-20T23:34:02.724Z,99.90
2022-09-20T23:36:31.494Z,99.90
2022-09-20T23:38:58.516Z,99.90
2022-09-20T23:41:26.750Z,99.90
2022-09-20T23:43:53.613Z,99.90
2022-09-20T23:46:22.289Z,99.90
2022-09-20T23:48:50.439Z,99.90
2022-09-20T23:51:20.403Z,99.90
2022-09-20T23:53:47.464Z,99.90
2022-09-20T23:56:15.084Z,99.90
2022-09-20T23:58:43.920Z,99.90
